createdAt,value
2019-02-05T00:02:51.018Z,0.70
2019-02-05T00:09:35.955Z,0.60
2019-02-05T00:16:33.443Z,0.60
2019-02-05T00:23:30.542Z,0.60
2019-02-05T00:30:27.648Z,0.70
2019-02-05T00:37:12.566Z,0.70
2019-02-05T00:44:17.028Z,0.70
2019-02-05T00:51:02.563Z,0.60
2019-02-05T00:57:47.674Z,0.60
2019-02-05T01:04:52.491Z,0.50
2019-02-05T01:11:54.587Z,0.40
2019-02-05T01:18:39.787Z,0.30
2019-02-05T01:25:24.702Z,0.20
2019-02-05T01:32:09.987Z,0.10
2019-02-05T01:38:55.348Z,-0.10
2019-02-05T01:45:40.326Z,-0.30
2019-02-05T01:52:25.326Z,-0.40
2019-02-05T01:59:10.335Z,-0.50
2019-02-05T02:05:55.434Z,-0.50
2019-02-05T02:12:40.444Z,-0.60
2019-02-05T02:19:25.431Z,-0.70
2019-02-05T02:26:10.454Z,-0.90
2019-02-05T02:32:56.044Z,-0.90
2019-02-05T02:39:40.989Z,-1.00
2019-02-05T02:46:25.925Z,-1.20
2019-02-05T02:53:10.958Z,-1.30
2019-02-05T02:59:55.968Z,-1.40
2019-02-05T03:06:41.175Z,-1.30
2019-02-05T03:13:26.143Z,-1.20
2019-02-05T03:20:23.238Z,-1.10
2019-02-05T03:27:21.416Z,-1.20
2019-02-05T03:34:06.746Z,-1.30
2019-02-05T03:40:58.449Z,-1.40
2019-02-05T03:47:43.515Z,-1.60
2019-02-05T03:55:07.368Z,-1.60
2019-02-05T04:02:16.513Z,-1.50
2019-02-05T04:09:13.379Z,-1.60
2019-02-05T04:16:16.200Z,-1.60
2019-02-05T04:23:06.871Z,-1.70
2019-02-05T04:30:09.884Z,-1.80
2019-02-05T04:37:15.551Z,-1.90
2019-02-05T04:44:09.387Z,-2.00
2019-02-05T04:51:16.155Z,-2.10
2019-02-05T04:58:06.871Z,-2.20
2019-02-05T05:04:54.886Z,-2.20
2019-02-05T05:11:51.706Z,-2.20
2019-02-05T05:18:49.073Z,-2.30
2019-02-05T05:25:34.782Z,-2.40
2019-02-05T05:32:20.406Z,-2.50
2019-02-05T05:39:07.946Z,-2.60
2019-02-05T05:45:52.884Z,-2.60
2019-02-05T05:52:37.913Z,-2.70
2019-02-05T05:59:23.143Z,-2.60
2019-02-05T06:06:20.054Z,-2.50
2019-02-05T06:13:17.076Z,-2.30
2019-02-05T06:20:14.471Z,-2.20
2019-02-05T06:26:59.542Z,-2.10
2019-02-05T06:33:44.552Z,-2.10
2019-02-05T06:40:33.862Z,-2.10
2019-02-05T06:47:38.207Z,-2.10
2019-02-05T06:54:41.215Z,-2.10
2019-02-05T07:01:26.318Z,-2.00
2019-02-05T07:08:11.534Z,-1.90
2019-02-05T07:14:56.471Z,-1.80
2019-02-05T07:21:43.486Z,-1.60
2019-02-05T07:28:28.630Z,-1.50
2019-02-05T07:35:14.982Z,-1.40
2019-02-05T07:41:59.918Z,-1.20
2019-02-05T07:48:57.179Z,-1.00
2019-02-05T07:55:54.248Z,-0.90
2019-02-05T08:02:39.256Z,-0.70
2019-02-05T08:09:24.263Z,0.50
2019-02-05T08:16:09.266Z,2.10
2019-02-05T08:23:13.542Z,7.60
2019-02-05T08:30:30.971Z,11.40
2019-02-05T08:37:15.915Z,11.00
2019-02-05T08:44:00.863Z,11.50
2019-02-05T08:50:46.178Z,12.10
2019-02-05T08:57:31.216Z,12.20
2019-02-05T09:04:16.233Z,13.10
2019-02-05T09:11:13.302Z,14.10
2019-02-05T09:18:10.252Z,14.30
2019-02-05T09:24:59.571Z,14.50
2019-02-05T09:46:40.648Z,15.80
2019-02-05T09:53:37.982Z,17.10
2019-02-05T10:00:35.503Z,17.20
2019-02-05T10:07:20.446Z,17.70
2019-02-05T10:14:05.603Z,18.40
2019-02-05T10:20:50.691Z,18.30
2019-02-05T10:27:35.631Z,18.50
2019-02-05T10:34:20.582Z,17.30
2019-02-05T10:41:06.217Z,16.40
2019-02-05T10:48:03.248Z,15.20
2019-02-05T10:55:00.555Z,14.20
2019-02-05T11:01:45.575Z,11.50
2019-02-05T11:08:30.755Z,8.80
2019-02-05T11:15:36.110Z,7.90
2019-02-05T11:22:22.393Z,7.40
2019-02-05T11:29:07.332Z,7.00
2019-02-05T11:36:04.127Z,6.80
2019-02-05T11:42:49.083Z,6.60
2019-02-05T11:49:34.022Z,6.60
2019-02-05T11:56:19.058Z,6.40
2019-02-05T12:03:05.835Z,6.40
2019-02-05T12:09:51.134Z,6.50
2019-02-05T12:16:36.075Z,6.80
2019-02-05T12:23:21.066Z,7.00
2019-02-05T12:30:13.056Z,7.30
2019-02-05T12:36:58.059Z,7.40
2019-02-05T12:43:43.058Z,7.50
2019-02-05T12:50:30.595Z,7.40
2019-02-05T12:57:15.527Z,7.40
2019-02-05T13:04:00.611Z,7.30
2019-02-05T13:10:48.231Z,7.30
2019-02-05T13:17:33.351Z,7.30
2019-02-05T13:24:18.358Z,7.20
2019-02-05T13:31:08.170Z,7.00
2019-02-05T13:37:52.735Z,7.00
2019-02-05T13:44:40.327Z,6.90
2019-02-05T13:51:25.254Z,6.80
2019-02-05T13:58:11.231Z,7.10
2019-02-05T14:04:56.178Z,7.20
2019-02-05T14:11:41.245Z,7.30
2019-02-05T14:18:26.255Z,7.40
2019-02-05T14:25:13.926Z,7.30
2019-02-05T14:31:59.758Z,7.30
2019-02-05T14:38:44.685Z,7.20
2019-02-05T14:45:29.707Z,7.30
2019-02-05T14:52:15.079Z,7.40
2019-02-05T14:59:00.022Z,7.30
2019-02-05T15:05:45.093Z,7.20
2019-02-05T15:12:30.030Z,7.10
2019-02-05T15:19:14.956Z,6.90
2019-02-05T15:25:59.866Z,6.90
2019-02-05T15:32:52.571Z,6.70
2019-02-05T15:39:37.590Z,6.50
2019-02-05T15:46:22.583Z,6.20
2019-02-05T15:53:07.708Z,5.90
2019-02-05T15:59:53.609Z,5.60
2019-02-05T16:06:38.535Z,5.30
2019-02-05T16:13:24.130Z,5.00
2019-02-05T16:20:15.532Z,4.70
2019-02-05T16:27:00.519Z,4.50
2019-02-05T16:41:51.685Z,3.80
2019-02-05T16:49:43.823Z,3.50
2019-02-05T16:56:28.743Z,3.20
2019-02-05T17:03:15.086Z,2.80
2019-02-05T17:10:00.373Z,2.50
2019-02-05T17:16:58.046Z,2.30
2019-02-05T17:23:42.981Z,2.10
2019-02-05T17:30:47.257Z,2.00
2019-02-05T17:37:32.193Z,1.70
2019-02-05T17:44:17.126Z,1.60
2019-02-05T17:51:15.791Z,1.50
2019-02-05T17:58:00.839Z,1.40
2019-02-05T18:04:45.847Z,1.30
2019-02-05T18:11:30.851Z,1.20
2019-02-05T18:18:28.440Z,1.10
2019-02-05T18:25:16.382Z,1.00
2019-02-05T18:32:21.024Z,0.70
2019-02-05T18:39:30.635Z,0.60
2019-02-05T18:46:21.516Z,0.40
2019-02-05T18:53:07.504Z,0.30
2019-02-05T18:59:52.471Z,0.20
2019-02-05T19:06:37.416Z,0.00
2019-02-05T19:13:23.659Z,0.00
2019-02-05T19:20:12.800Z,0.00
2019-02-05T19:27:11.091Z,-0.10
2019-02-05T19:34:07.940Z,-0.20
2019-02-05T19:41:05.434Z,-0.40
2019-02-05T19:48:03.967Z,-0.50
2019-02-05T19:54:48.947Z,-0.60
2019-02-05T20:01:35.883Z,-0.70
2019-02-05T21:15:09.287Z,-0.70
2019-02-05T21:22:09.074Z,-0.30
2019-02-05T21:28:57.682Z,-0.30
2019-02-05T21:35:42.545Z,-0.30
2019-02-05T21:42:27.916Z,-0.40
2019-02-05T21:49:19.799Z,-0.50
2019-02-05T21:56:05.971Z,-0.60
2019-02-05T22:02:50.990Z,-0.70
2019-02-05T22:09:36.331Z,-0.60
2019-02-05T22:16:40.643Z,-0.60
2019-02-05T22:23:58.152Z,-0.60
2019-02-05T22:30:55.076Z,-0.80
2019-02-05T22:37:40.010Z,-0.90
2019-02-05T22:44:44.295Z,-0.80
2019-02-05T22:51:34.840Z,-0.80
2019-02-05T22:58:19.789Z,-0.90
2019-02-05T23:05:07.813Z,-0.70
2019-02-05T23:12:31.412Z,-0.80
2019-02-05T23:19:16.494Z,-0.70
2019-02-05T23:26:01.503Z,-0.70
2019-02-05T23:32:46.510Z,-0.80
2019-02-05T23:39:31.447Z,-0.90
2019-02-05T23:46:16.317Z,-1.00
2019-02-05T23:53:01.321Z,-1.20
2019-02-05T23:59:46.279Z,-1.20
